createdAt,value
2016-09-26T00:00:16.133Z,13.37
2016-09-26T00:01:16.077Z,13.35
2016-09-26T00:02:16.822Z,13.38
2016-09-26T00:03:16.009Z,13.19
2016-09-26T00:04:16.364Z,13.28
2016-09-26T00:05:16.162Z,13.23
2016-09-26T00:06:15.906Z,13.25
2016-09-26T00:07:16.475Z,13.22
2016-09-26T00:08:16.500Z,13.16
2016-09-26T00:09:16.579Z,13.2
2016-09-26T00:10:16.225Z,13.22
2016-09-26T00:11:17.347Z,13.25
2016-09-26T00:12:16.308Z,13.31
2016-09-26T00:13:16.772Z,13.38
2016-09-26T00:14:16.181Z,13.31
2016-09-26T00:15:16.434Z,13.3
2016-09-26T00:16:17.046Z,13.38
2016-09-26T00:17:16.647Z,13.39
2016-09-26T00:18:15.980Z,13.35
2016-09-26T00:19:16.248Z,13.39
2016-09-26T00:20:16.352Z,13.38
2016-09-26T00:21:16.471Z,13.41
2016-09-26T00:22:16.189Z,13.42
2016-09-26T00:23:16.477Z,13.41
2016-09-26T00:24:16.297Z,13.39
2016-09-26T00:25:17.996Z,13.41
2016-09-26T00:26:15.970Z,13.38
2016-09-26T00:27:16.459Z,13.35
2016-09-26T00:28:16.785Z,13.38
2016-09-26T00:29:17.625Z,13.44
2016-09-26T00:30:16.599Z,13.46
2016-09-26T00:31:16.882Z,13.37
2016-09-26T00:32:17.203Z,13.35
2016-09-26T00:33:16.288Z,13.35
2016-09-26T00:34:16.736Z,13.38
2016-09-26T00:35:16.667Z,13.31
2016-09-26T00:36:16.929Z,13.33
2016-09-26T00:37:16.526Z,13.39
2016-09-26T00:38:16.843Z,13.39
2016-09-26T00:39:17.095Z,13.42
2016-09-26T00:40:16.619Z,13.35
2016-09-26T00:41:17.006Z,13.37
2016-09-26T00:42:17.266Z,13.31
2016-09-26T00:43:16.381Z,13.2
2016-09-26T00:44:16.971Z,13.23
2016-09-26T00:45:17.048Z,13.23
2016-09-26T00:46:16.801Z,13.22
2016-09-26T00:47:17.747Z,13.11
2016-09-26T00:48:17.298Z,13.09
2016-09-26T00:49:16.639Z,13.03
2016-09-26T00:50:17.075Z,13.08
2016-09-26T00:51:16.991Z,13.12
2016-09-26T00:52:16.862Z,13.05
2016-09-26T00:53:16.943Z,13.15
2016-09-26T00:54:16.778Z,13.12
2016-09-26T00:55:16.857Z,13.15
2016-09-26T00:56:17.255Z,13.23
2016-09-26T00:57:18.229Z,13.2
2016-09-26T00:58:17.845Z,13.09
2016-09-26T00:59:18.130Z,13.15
2016-09-26T01:00:17.486Z,13.16
2016-09-26T01:01:17.079Z,13.16
2016-09-26T01:02:18.172Z,13.03
2016-09-26T01:03:17.882Z,12.93
2016-09-26T01:04:17.069Z,12.91
2016-09-26T01:05:17.374Z,12.9
2016-09-26T01:06:17.069Z,12.9
2016-09-26T01:07:17.578Z,12.9
2016-09-26T01:08:17.141Z,12.93
2016-09-26T01:09:18.792Z,13.08
2016-09-26T01:10:18.218Z,13.38
2016-09-26T01:11:17.658Z,13.46
2016-09-26T01:12:18.062Z,13.56
2016-09-26T01:13:18.285Z,13.72
2016-09-26T01:14:18.072Z,13.75
2016-09-26T01:15:17.671Z,13.7
2016-09-26T01:16:17.671Z,13.95
2016-09-26T01:17:17.472Z,13.93
2016-09-26T01:18:17.681Z,13.96
2016-09-26T01:19:18.488Z,14.08
2016-09-26T01:20:18.222Z,14.14
2016-09-26T01:21:17.409Z,14.14
2016-09-26T01:22:17.694Z,14.18
2016-09-26T01:23:17.582Z,14.36
2016-09-26T01:24:18.182Z,14.33
2016-09-26T01:25:18.200Z,14.45
2016-09-26T01:26:17.596Z,14.53
2016-09-26T01:27:17.310Z,14.47
2016-09-26T01:28:17.686Z,14.59
2016-09-26T01:29:17.460Z,14.72
2016-09-26T01:30:17.656Z,14.6
2016-09-26T01:31:18.654Z,14.68
2016-09-26T01:32:19.149Z,14.73
2016-09-26T01:33:19.206Z,14.59
2016-09-26T01:34:17.876Z,14.65
2016-09-26T01:35:18.005Z,14.68
2016-09-26T01:36:18.916Z,14.59
2016-09-26T01:37:17.623Z,14.63
2016-09-26T01:38:17.434Z,14.53
2016-09-26T01:39:18.737Z,14.54
2016-09-26T01:40:17.336Z,14.51
2016-09-26T01:41:18.438Z,14.62
2016-09-26T01:42:18.171Z,14.54
2016-09-26T01:43:19.044Z,14.51
2016-09-26T01:44:18.978Z,14.43
2016-09-26T01:45:18.222Z,14.43
2016-09-26T01:46:19.167Z,14.41
2016-09-26T01:47:19.163Z,14.32
2016-09-26T01:48:19.455Z,14.12
2016-09-26T01:49:18.457Z,14.18
2016-09-26T01:50:19.184Z,14.17
2016-09-26T01:51:18.445Z,14.07
2016-09-26T01:52:18.668Z,14.07
2016-09-26T01:53:18.224Z,14.05
2016-09-26T01:54:18.345Z,13.95
2016-09-26T01:55:18.294Z,13.9
2016-09-26T01:56:18.332Z,13.9
2016-09-26T01:57:18.745Z,13.89
2016-09-26T01:58:18.269Z,13.78
2016-09-26T01:59:18.881Z,13.7
2016-09-26T02:00:18.792Z,13.67
2016-09-26T02:01:18.461Z,13.6
2016-09-26T02:02:19.606Z,13.5
2016-09-26T02:03:19.329Z,13.49
2016-09-26T02:04:18.775Z,13.39
2016-09-26T02:05:18.737Z,13.39
2016-09-26T02:06:19.129Z,13.31
2016-09-26T02:07:18.551Z,13.25
2016-09-26T02:08:18.783Z,13.23
2016-09-26T02:09:19.256Z,13.25
2016-09-26T02:10:18.911Z,13.08
2016-09-26T02:11:19.011Z,13.13
2016-09-26T02:12:18.730Z,13.09
2016-09-26T02:13:19.195Z,12.91
2016-09-26T02:14:19.495Z,12.98
2016-09-26T02:15:19.020Z,12.93
2016-09-26T02:16:19.686Z,12.87
2016-09-26T02:17:18.765Z,12.91
2016-09-26T02:18:19.086Z,12.9
2016-09-26T02:19:20.160Z,12.95
2016-09-26T02:20:19.653Z,12.95
2016-09-26T02:21:19.661Z,12.85
2016-09-26T02:22:19.470Z,12.86
2016-09-26T02:23:19.005Z,12.87
2016-09-26T02:24:18.950Z,12.83
2016-09-26T02:25:18.977Z,12.87
2016-09-26T02:26:18.650Z,12.78
2016-09-26T02:27:18.899Z,12.78
2016-09-26T02:28:18.937Z,12.85
2016-09-26T02:29:19.389Z,12.8
2016-09-26T02:30:19.081Z,12.76
2016-09-26T02:31:18.894Z,12.76
2016-09-26T02:32:19.407Z,12.82
2016-09-26T02:33:19.040Z,12.79
2016-09-26T02:34:20.027Z,12.9
2016-09-26T02:35:20.190Z,12.85
2016-09-26T02:36:19.685Z,12.94
2016-09-26T02:37:20.038Z,12.86
2016-09-26T02:38:19.423Z,12.78
2016-09-26T02:39:19.462Z,12.85
2016-09-26T02:40:19.114Z,12.73
2016-09-26T02:41:19.498Z,12.72
2016-09-26T02:42:19.627Z,12.65
2016-09-26T02:43:20.141Z,12.65
2016-09-26T02:44:19.708Z,12.49
2016-09-26T02:45:19.930Z,12.64
2016-09-26T02:46:19.311Z,12.61
2016-09-26T02:47:20.360Z,12.65
2016-09-26T02:48:19.870Z,12.49
2016-09-26T02:49:19.893Z,12.65
2016-09-26T02:50:19.947Z,12.65
2016-09-26T02:51:19.927Z,12.64
2016-09-26T02:52:19.802Z,12.6
2016-09-26T02:53:19.812Z,12.5
2016-09-26T02:54:19.266Z,12.5
2016-09-26T02:55:19.666Z,12.39
2016-09-26T02:56:20.034Z,12.39
2016-09-26T02:57:20.339Z,12.36
2016-09-26T02:58:19.982Z,12.25
2016-09-26T02:59:19.620Z,12.28
2016-09-26T03:00:19.729Z,12.25
2016-09-26T03:01:19.787Z,12.27
2016-09-26T03:02:19.859Z,12.24
2016-09-26T03:03:19.128Z,12.22
2016-09-26T03:04:20.063Z,12.24
2016-09-26T03:05:19.961Z,12.35
2016-09-26T03:06:20.680Z,12.24
2016-09-26T03:07:20.209Z,12.28
2016-09-26T03:08:20.838Z,12.28
2016-09-26T03:09:19.684Z,12.35
2016-09-26T03:10:20.675Z,12.43
2016-09-26T03:11:19.667Z,12.37
2016-09-26T03:12:20.071Z,12.36
2016-09-26T03:13:19.702Z,12.39
2016-09-26T03:14:19.476Z,12.35
2016-09-26T03:15:19.594Z,12.43
2016-09-26T03:16:19.635Z,12.47
2016-09-26T03:17:20.100Z,12.46
2016-09-26T03:18:21.143Z,12.45
2016-09-26T03:19:20.144Z,12.47
2016-09-26T03:20:20.497Z,12.54
2016-09-26T03:21:20.766Z,12.53
2016-09-26T03:22:21.312Z,12.6
2016-09-26T03:23:20.004Z,12.6
2016-09-26T03:24:21.266Z,12.65
2016-09-26T03:25:20.948Z,12.78
2016-09-26T03:26:20.494Z,12.75
2016-09-26T03:27:20.372Z,12.78
2016-09-26T03:28:20.925Z,12.75
2016-09-26T03:29:19.994Z,12.79
2016-09-26T03:30:20.090Z,12.7
2016-09-26T03:31:20.917Z,12.86
2016-09-26T03:32:20.298Z,12.86
2016-09-26T03:33:20.429Z,12.93
2016-09-26T03:34:20.908Z,12.93
2016-09-26T03:35:20.336Z,12.86
2016-09-26T03:36:20.387Z,12.9
2016-09-26T03:37:20.705Z,12.95
2016-09-26T03:38:21.116Z,12.9
2016-09-26T03:39:21.814Z,12.91
2016-09-26T03:40:20.142Z,12.85
2016-09-26T03:41:21.206Z,12.83
2016-09-26T03:42:21.116Z,12.9
2016-09-26T03:43:21.105Z,12.9
2016-09-26T03:44:20.950Z,12.83
2016-09-26T03:45:20.228Z,12.87
2016-09-26T03:46:21.628Z,12.83
2016-09-26T03:47:21.137Z,12.91
2016-09-26T03:48:21.816Z,12.86
2016-09-26T03:49:20.991Z,12.87
2016-09-26T03:50:20.311Z,12.91
2016-09-26T03:51:21.045Z,13
2016-09-26T03:52:20.654Z,12.91
2016-09-26T03:53:21.292Z,12.9
2016-09-26T03:54:21.967Z,12.91
2016-09-26T03:55:20.989Z,12.82
2016-09-26T03:56:21.124Z,12.8
2016-09-26T03:57:20.781Z,12.83
2016-09-26T03:58:21.001Z,12.91
2016-09-26T03:59:21.561Z,12.85
2016-09-26T04:00:21.458Z,12.87
2016-09-26T04:01:20.976Z,12.76
2016-09-26T04:02:21.145Z,12.78
2016-09-26T04:03:20.357Z,12.7
2016-09-26T04:04:21.505Z,12.78
2016-09-26T04:05:21.674Z,12.73
2016-09-26T04:06:22.111Z,12.75
2016-09-26T04:07:21.093Z,12.73
2016-09-26T04:08:21.681Z,12.75
2016-09-26T04:09:22.045Z,12.75
2016-09-26T04:10:21.015Z,12.72
2016-09-26T04:11:21.472Z,12.65
2016-09-26T04:12:21.869Z,12.65
2016-09-26T04:13:21.300Z,12.68
2016-09-26T04:14:21.287Z,12.64
2016-09-26T04:15:21.804Z,12.61
2016-09-26T04:16:20.924Z,12.67
2016-09-26T04:17:22.933Z,12.7
2016-09-26T04:18:22.550Z,12.57
2016-09-26T04:19:22.263Z,12.67
2016-09-26T04:20:20.183Z,12.57
2016-09-26T04:21:22.437Z,12.6
2016-09-26T04:22:21.591Z,12.47
2016-09-26T04:23:21.864Z,12.57
2016-09-26T04:24:21.729Z,12.49
2016-09-26T04:25:22.650Z,12.5
2016-09-26T04:26:21.117Z,12.54
2016-09-26T04:27:21.538Z,12.46
2016-09-26T04:28:22.632Z,12.53
2016-09-26T04:29:21.883Z,12.53
2016-09-26T04:30:22.355Z,12.42
2016-09-26T04:31:20.941Z,12.58
2016-09-26T04:32:22.634Z,12.53
2016-09-26T04:33:21.753Z,12.62
2016-09-26T04:34:22.347Z,12.61
2016-09-26T04:35:22.390Z,12.64
2016-09-26T04:36:21.173Z,12.67
2016-09-26T04:37:21.957Z,12.67
2016-09-26T04:38:21.707Z,12.73
2016-09-26T04:39:21.499Z,12.72
2016-09-26T04:40:22.389Z,12.68
2016-09-26T04:41:21.337Z,12.75
2016-09-26T04:42:21.746Z,12.75
2016-09-26T04:43:22.605Z,12.75
2016-09-26T04:44:21.964Z,12.79
2016-09-26T04:45:21.899Z,12.86
2016-09-26T04:46:24.676Z,12.87
2016-09-26T04:47:22.194Z,12.86
2016-09-26T04:48:22.479Z,12.93
2016-09-26T04:49:21.567Z,12.82
2016-09-26T04:50:21.795Z,12.87
2016-09-26T04:51:22.285Z,12.93
2016-09-26T04:52:21.770Z,12.98
2016-09-26T04:53:21.942Z,12.97
2016-09-26T04:54:22.661Z,12.98
2016-09-26T04:55:21.709Z,13.08
2016-09-26T04:56:22.195Z,13.08
2016-09-26T04:57:23.332Z,12.98
2016-09-26T04:58:22.543Z,13.05
2016-09-26T04:59:22.152Z,13.08
2016-09-26T05:00:22.024Z,13.08
2016-09-26T05:01:22.257Z,13.04
2016-09-26T05:02:22.111Z,13.04
2016-09-26T05:03:22.537Z,13.04
2016-09-26T05:04:22.919Z,13.08
2016-09-26T05:05:21.741Z,13.08
2016-09-26T05:06:23.690Z,13.08
2016-09-26T05:07:22.372Z,13.09
2016-09-26T05:08:23.478Z,13.08
2016-09-26T05:09:22.551Z,13.05
2016-09-26T05:10:22.485Z,13.04
2016-09-26T05:11:22.534Z,13.01
2016-09-26T05:12:22.433Z,12.95
2016-09-26T05:13:22.659Z,12.93
2016-09-26T05:14:22.461Z,12.94
2016-09-26T05:15:21.916Z,12.95
2016-09-26T05:16:21.937Z,12.95
2016-09-26T05:17:22.142Z,12.95
2016-09-26T05:18:22.037Z,12.94
2016-09-26T05:19:21.630Z,13.11
2016-09-26T05:20:21.447Z,13.01
2016-09-26T05:21:21.390Z,13.13
2016-09-26T05:22:21.792Z,13.09
2016-09-26T05:23:21.991Z,13.04
2016-09-26T05:24:21.456Z,13.13
2016-09-26T05:25:22.452Z,13.2
2016-09-26T05:26:22.066Z,13.2
2016-09-26T05:27:23.216Z,13.3
2016-09-26T05:28:23.491Z,13.23
2016-09-26T05:29:22.421Z,13.22
2016-09-26T05:30:22.794Z,13.23
2016-09-26T05:31:23.828Z,13.23
2016-09-26T05:32:23.906Z,13.2
2016-09-26T05:33:23.938Z,13.22
2016-09-26T05:34:23.945Z,13.2
2016-09-26T05:35:23.239Z,13.19
2016-09-26T05:36:23.228Z,13.19
2016-09-26T05:37:23.062Z,13.22
2016-09-26T05:38:22.798Z,13.19
2016-09-26T05:39:24.263Z,13.2
2016-09-26T05:40:23.404Z,13.28
2016-09-26T05:41:23.512Z,13.3
2016-09-26T05:42:23.100Z,13.31
2016-09-26T05:43:24.191Z,13.33
2016-09-26T05:44:24.946Z,13.33
2016-09-26T05:45:25.685Z,13.38
2016-09-26T05:46:23.265Z,13.37
2016-09-26T05:47:23.391Z,13.38
2016-09-26T05:48:23.441Z,13.42
2016-09-26T05:49:23.942Z,13.3
2016-09-26T05:50:23.745Z,13.35
2016-09-26T05:51:22.759Z,13.44
2016-09-26T05:52:23.100Z,13.47
2016-09-26T05:53:23.544Z,13.46
2016-09-26T05:54:23.160Z,13.52
2016-09-26T05:55:22.932Z,13.54
2016-09-26T05:56:23.141Z,13.47
2016-09-26T05:57:23.297Z,13.49
2016-09-26T05:58:23.758Z,13.52
2016-09-26T05:59:23.594Z,13.46
2016-09-26T06:00:23.630Z,13.53
2016-09-26T06:01:23.415Z,13.52
2016-09-26T06:02:23.906Z,13.52
2016-09-26T06:03:23.670Z,13.49
2016-09-26T06:04:24.384Z,13.49
2016-09-26T06:05:23.698Z,13.52
2016-09-26T06:06:25.053Z,13.52
2016-09-26T06:07:23.835Z,13.53
2016-09-26T06:08:23.549Z,13.47
2016-09-26T06:09:24.023Z,13.6
2016-09-26T06:10:23.954Z,13.53
2016-09-26T06:11:23.135Z,13.59
2016-09-26T06:12:24.970Z,13.71
2016-09-26T06:13:23.567Z,13.68
2016-09-26T06:14:23.552Z,13.7
2016-09-26T06:15:23.558Z,13.79
2016-09-26T06:16:23.827Z,13.77
2016-09-26T06:17:24.046Z,13.75
2016-09-26T06:18:23.819Z,13.87
2016-09-26T06:19:23.492Z,13.85
2016-09-26T06:20:23.710Z,13.87
2016-09-26T06:21:24.306Z,13.89
2016-09-26T06:22:23.672Z,13.85
2016-09-26T06:23:24.294Z,13.78
2016-09-26T06:24:24.292Z,13.78
2016-09-26T06:25:24.008Z,13.79
2016-09-26T06:26:24.832Z,13.9
2016-09-26T06:27:23.690Z,13.95
2016-09-26T06:28:24.671Z,13.92
2016-09-26T06:29:23.102Z,13.85
2016-09-26T06:30:24.372Z,13.87
2016-09-26T06:31:24.928Z,13.93
2016-09-26T06:32:25.165Z,13.87
2016-09-26T06:33:24.816Z,13.86
2016-09-26T06:34:24.307Z,13.9
2016-09-26T06:35:25.101Z,13.86
2016-09-26T06:36:24.151Z,13.97
2016-09-26T06:37:24.257Z,13.93
2016-09-26T06:38:24.237Z,13.87
2016-09-26T06:39:25.116Z,14.03
2016-09-26T06:40:24.203Z,14
2016-09-26T06:41:24.179Z,14.05
2016-09-26T06:42:24.188Z,13.9
2016-09-26T06:43:24.764Z,14.05
2016-09-26T06:44:23.905Z,13.99
2016-09-26T06:45:24.797Z,14.04
2016-09-26T06:46:24.583Z,14.12
2016-09-26T06:47:24.568Z,14.03
2016-09-26T06:48:24.465Z,14.05
2016-09-26T06:49:25.625Z,14.14
2016-09-26T06:50:25.887Z,14.17
2016-09-26T06:51:24.189Z,14.17
2016-09-26T06:52:24.806Z,14.22
2016-09-26T06:53:25.607Z,14.23
2016-09-26T06:54:24.705Z,14.32
2016-09-26T06:55:24.666Z,14.3
2016-09-26T06:56:24.644Z,14.33
2016-09-26T06:57:26.722Z,14.37
2016-09-26T06:58:25.046Z,14.35
2016-09-26T06:59:24.487Z,14.35
2016-09-26T07:00:25.273Z,14.4
2016-09-26T07:01:25.046Z,14.48
2016-09-26T07:02:25.121Z,14.48
2016-09-26T07:03:25.076Z,14.51
2016-09-26T07:04:25.255Z,14.5
2016-09-26T07:05:25.138Z,14.58
2016-09-26T07:06:24.760Z,14.51
2016-09-26T07:07:26.120Z,14.54
2016-09-26T07:08:25.215Z,14.63
2016-09-26T07:09:24.777Z,14.63
2016-09-26T07:10:24.470Z,14.66
2016-09-26T07:11:24.967Z,14.82
2016-09-26T07:12:25.272Z,14.72
2016-09-26T07:13:25.017Z,14.82
2016-09-26T07:14:25.344Z,14.78
2016-09-26T07:15:24.803Z,14.82
2016-09-26T07:16:25.529Z,14.85
2016-09-26T07:17:25.751Z,14.88
2016-09-26T07:18:24.593Z,14.86
2016-09-26T07:19:24.852Z,14.97
2016-09-26T07:20:25.447Z,15.02
2016-09-26T07:21:25.298Z,15.07
2016-09-26T07:22:25.951Z,15.06
2016-09-26T07:23:25.135Z,15.15
2016-09-26T07:24:25.846Z,15.24
2016-09-26T07:25:25.907Z,15.22
2016-09-26T07:26:25.697Z,15.27
2016-09-26T07:27:26.300Z,15.33
2016-09-26T07:28:25.195Z,15.42
2016-09-26T07:29:25.712Z,15.37
2016-09-26T07:30:25.177Z,15.47
2016-09-26T07:31:25.730Z,15.44
2016-09-26T07:32:25.707Z,15.44
2016-09-26T07:33:25.477Z,15.44
2016-09-26T07:34:25.664Z,15.54
2016-09-26T07:35:26.039Z,15.49
2016-09-26T07:36:25.422Z,15.54
2016-09-26T07:37:25.423Z,15.58
2016-09-26T07:38:25.274Z,15.55
2016-09-26T07:39:25.282Z,15.61
2016-09-26T07:40:25.180Z,15.64
2016-09-26T07:41:26.973Z,15.73
2016-09-26T07:42:26.772Z,15.73
2016-09-26T07:43:25.073Z,15.76
2016-09-26T07:44:26.162Z,15.7
2016-09-26T07:45:24.973Z,15.76
2016-09-26T07:46:25.157Z,15.79
2016-09-26T07:47:25.460Z,15.79
2016-09-26T07:48:26.469Z,15.75
2016-09-26T07:49:25.666Z,15.7
2016-09-26T07:50:25.675Z,15.73
2016-09-26T07:51:26.583Z,15.79
2016-09-26T07:52:25.820Z,15.9
2016-09-26T07:53:26.747Z,15.92
2016-09-26T07:54:25.397Z,15.95
2016-09-26T07:55:26.255Z,15.98
2016-09-26T07:56:25.620Z,16
2016-09-26T07:57:27.554Z,16.05
2016-09-26T07:58:26.055Z,16.02
2016-09-26T07:59:26.578Z,15.98
2016-09-26T08:00:26.186Z,16.04
2016-09-26T08:01:26.351Z,16.04
2016-09-26T08:02:26.028Z,16.09
2016-09-26T08:03:26.183Z,16.1
2016-09-26T08:04:26.040Z,16.12
2016-09-26T08:05:25.549Z,16.1
2016-09-26T08:06:25.933Z,16.21
2016-09-26T08:07:26.463Z,16.1
2016-09-26T08:08:26.885Z,16.2
2016-09-26T08:09:26.670Z,16.15
2016-09-26T08:10:26.487Z,16.12
2016-09-26T08:11:25.977Z,16.1
2016-09-26T08:12:26.892Z,16.24
2016-09-26T08:13:26.785Z,16.28
2016-09-26T08:14:25.686Z,16.32
2016-09-26T08:15:26.417Z,16.33
2016-09-26T08:16:25.884Z,16.36
2016-09-26T08:17:26.806Z,16.38
2016-09-26T08:18:26.868Z,16.35
2016-09-26T08:19:26.155Z,16.42
2016-09-26T08:20:26.694Z,16.32
2016-09-26T08:21:27.243Z,16.38
2016-09-26T08:22:26.448Z,16.51
2016-09-26T08:23:27.269Z,16.5
2016-09-26T08:24:26.591Z,16.56
2016-09-26T08:25:26.590Z,16.66
2016-09-26T08:26:26.493Z,16.61
2016-09-26T08:27:26.277Z,16.69
2016-09-26T08:28:27.819Z,16.83
2016-09-26T08:29:26.631Z,16.79
2016-09-26T08:30:26.467Z,16.9
2016-09-26T08:31:27.187Z,16.96
2016-09-26T08:32:27.247Z,17.12
2016-09-26T08:33:27.593Z,17.24
2016-09-26T08:34:27.502Z,17.3
2016-09-26T08:35:26.612Z,17.34
2016-09-26T08:36:27.671Z,17.3
2016-09-26T08:37:26.802Z,17.27
2016-09-26T08:38:28.344Z,17.45
2016-09-26T08:39:26.632Z,17.41
2016-09-26T08:40:26.822Z,17.57
2016-09-26T08:41:27.387Z,17.49
2016-09-26T08:42:26.916Z,17.54
2016-09-26T08:43:28.759Z,17.64
2016-09-26T08:44:27.236Z,18
2016-09-26T08:45:27.318Z,18.75
2016-09-26T08:46:27.906Z,18.92
2016-09-26T08:47:27.340Z,19.4
2016-09-26T08:48:26.942Z,19.55
2016-09-26T08:49:27.285Z,19.89
2016-09-26T08:50:27.014Z,20.14
2016-09-26T08:51:27.573Z,20.39
2016-09-26T08:52:27.240Z,20.28
2016-09-26T08:53:27.102Z,20.26
2016-09-26T08:54:27.154Z,20.51
2016-09-26T08:55:26.668Z,20.6
2016-09-26T08:56:27.860Z,20.75
2016-09-26T08:57:26.803Z,20.22
2016-09-26T08:58:26.890Z,20.48
2016-09-26T08:59:27.451Z,20.59
2016-09-26T09:00:27.212Z,20.74
2016-09-26T09:01:27.346Z,20.47
2016-09-26T09:02:26.545Z,20.31
2016-09-26T09:03:27.534Z,20.28
2016-09-26T09:04:27.685Z,20.22
2016-09-26T09:05:27.328Z,19.99
2016-09-26T09:06:27.109Z,19.96
2016-09-26T09:07:27.025Z,19.69
2016-09-26T09:08:27.133Z,19.84
2016-09-26T09:09:27.327Z,19.15
2016-09-26T09:10:26.903Z,18.95
2016-09-26T09:11:27.905Z,19.09
2016-09-26T09:12:27.491Z,19.09
2016-09-26T09:13:26.894Z,19.08
2016-09-26T09:14:28.269Z,19
2016-09-26T09:15:27.632Z,19.02
2016-09-26T09:16:27.754Z,18.93
2016-09-26T09:17:27.428Z,19
2016-09-26T09:18:27.623Z,19.11
2016-09-26T09:19:28.072Z,18.99
2016-09-26T09:20:28.162Z,18.96
2016-09-26T09:21:29.300Z,18.68
2016-09-26T09:22:27.125Z,18.38
2016-09-26T09:23:28.021Z,18.47
2016-09-26T09:24:27.537Z,18.56
2016-09-26T09:25:27.423Z,18.73
2016-09-26T09:26:27.706Z,18.78
2016-09-26T09:27:28.239Z,19.02
2016-09-26T09:28:28.304Z,19.07
2016-09-26T09:29:28.275Z,19.21
2016-09-26T09:30:27.748Z,19.26
2016-09-26T09:31:29.569Z,18.98
2016-09-26T09:32:28.235Z,19
2016-09-26T09:33:29.047Z,19.27
2016-09-26T09:34:27.900Z,19.41
2016-09-26T09:35:27.845Z,19.45
2016-09-26T09:36:28.231Z,19.7
2016-09-26T09:37:28.923Z,19.84
2016-09-26T09:38:28.554Z,19.79
2016-09-26T09:39:27.901Z,20.14
2016-09-26T09:40:28.299Z,20.29
2016-09-26T09:41:28.961Z,20.6
2016-09-26T09:42:28.159Z,21.07
2016-09-26T09:43:28.061Z,21.48
2016-09-26T09:44:28.819Z,21.4
2016-09-26T09:45:28.943Z,21.55
2016-09-26T09:46:28.172Z,21.4
2016-09-26T09:47:28.500Z,21.69
2016-09-26T09:48:28.507Z,21.62
2016-09-26T09:49:29.283Z,21.54
2016-09-26T09:50:29.056Z,21.32
2016-09-26T09:51:29.793Z,21.5
2016-09-26T09:52:28.386Z,21.62
2016-09-26T09:53:27.627Z,21.55
2016-09-26T09:54:29.192Z,21.61
2016-09-26T09:55:28.333Z,21.35
2016-09-26T09:56:29.125Z,21.18
2016-09-26T09:57:29.002Z,21.05
2016-09-26T09:58:28.329Z,20.75
2016-09-26T09:59:28.795Z,20.84
2016-09-26T10:00:29.984Z,20.72
2016-09-26T10:01:29.027Z,20.93
2016-09-26T10:02:29.047Z,21.05
2016-09-26T10:03:29.134Z,21.17
2016-09-26T10:04:29.080Z,21.36
2016-09-26T10:05:28.501Z,21.05
2016-09-26T10:06:29.211Z,21.11
2016-09-26T10:07:28.314Z,20.6
2016-09-26T10:08:29.371Z,20.87
2016-09-26T10:09:29.503Z,21.52
2016-09-26T10:10:29.382Z,21.43
2016-09-26T10:11:29.012Z,21.35
2016-09-26T10:12:28.529Z,21.72
2016-09-26T10:13:28.181Z,22.06
2016-09-26T10:14:29.337Z,22.26
2016-09-26T10:15:29.368Z,22.75
2016-09-26T10:16:29.360Z,22.98
2016-09-26T10:17:29.119Z,23.03
2016-09-26T10:18:29.510Z,22.55
2016-09-26T10:19:29.040Z,22.38
2016-09-26T10:20:29.220Z,22.99
2016-09-26T10:21:30.031Z,23.41
2016-09-26T10:22:29.751Z,23.71
2016-09-26T10:23:29.278Z,24.18
2016-09-26T10:24:29.495Z,24.02
2016-09-26T10:25:29.889Z,23.87
2016-09-26T10:26:30.157Z,23.65
2016-09-26T10:27:29.671Z,23.55
2016-09-26T10:28:29.986Z,24.28
2016-09-26T10:29:29.767Z,24.48
2016-09-26T10:30:30.445Z,24.05
2016-09-26T10:31:28.949Z,23.93
2016-09-26T10:32:30.234Z,23.69
2016-09-26T10:33:29.943Z,23.91
2016-09-26T10:34:30.165Z,23.55
2016-09-26T10:35:30.049Z,23.81
2016-09-26T10:36:30.147Z,23.93
2016-09-26T10:37:30.118Z,23.99
2016-09-26T10:38:29.084Z,24.03
2016-09-26T10:39:29.254Z,23.98
2016-09-26T10:40:30.486Z,24.03
2016-09-26T10:41:29.326Z,23.86
2016-09-26T10:42:29.416Z,23.95
2016-09-26T10:43:29.526Z,23.47
2016-09-26T10:44:31.124Z,23.32
2016-09-26T10:45:29.912Z,22.91
2016-09-26T10:46:29.867Z,22.72
2016-09-26T10:47:30.626Z,22.76
2016-09-26T10:48:29.743Z,22.88
2016-09-26T10:49:29.859Z,22.75
2016-09-26T10:50:29.881Z,22.8
2016-09-26T10:51:30.661Z,22.59
2016-09-26T10:52:29.718Z,22.23
2016-09-26T10:53:30.309Z,22
2016-09-26T10:54:29.939Z,22.25
2016-09-26T10:55:30.408Z,22.69
2016-09-26T10:56:30.289Z,22.78
2016-09-26T10:57:30.058Z,23.02
2016-09-26T10:58:30.589Z,22.73
2016-09-26T10:59:29.921Z,22.87
2016-09-26T11:00:29.915Z,22.87
2016-09-26T11:01:30.251Z,22.75
2016-09-26T11:02:30.075Z,22.57
2016-09-26T11:03:30.743Z,22.66
2016-09-26T11:04:30.092Z,22.5
2016-09-26T11:05:30.407Z,22.72
2016-09-26T11:06:30.881Z,22.72
2016-09-26T11:07:30.513Z,22.98
2016-09-26T11:08:29.752Z,22.85
2016-09-26T11:09:30.988Z,22.91
2016-09-26T11:10:30.836Z,22.81
2016-09-26T11:11:29.965Z,22.69
2016-09-26T11:12:30.647Z,22.25
2016-09-26T11:13:30.454Z,22.33
2016-09-26T11:14:30.006Z,22.28
2016-09-26T11:15:32.158Z,22.33
2016-09-26T11:16:30.801Z,22.45
2016-09-26T11:17:31.534Z,22.41
2016-09-26T11:18:30.555Z,22.2
2016-09-26T11:19:30.987Z,22.25
2016-09-26T11:20:30.410Z,22.26
2016-09-26T11:21:30.683Z,22.11
2016-09-26T11:22:30.429Z,22
2016-09-26T11:23:30.392Z,22
2016-09-26T11:24:31.089Z,21.88
2016-09-26T11:25:30.658Z,21.77
2016-09-26T11:26:30.227Z,21.72
2016-09-26T11:27:31.055Z,21.76
2016-09-26T11:28:30.554Z,21.67
2016-09-26T11:29:31.898Z,21.75
2016-09-26T11:30:30.814Z,21.72
2016-09-26T11:31:31.469Z,21.67
2016-09-26T11:32:32.542Z,21.54
2016-09-26T11:33:30.565Z,21.61
2016-09-26T11:34:31.932Z,21.6
2016-09-26T11:35:31.464Z,21.61
2016-09-26T11:36:30.847Z,21.46
2016-09-26T11:37:31.332Z,21.43
2016-09-26T11:38:32.223Z,21.5
2016-09-26T11:39:31.391Z,21.54
2016-09-26T11:40:31.513Z,21.43
2016-09-26T11:41:32.227Z,21.36
2016-09-26T11:42:30.704Z,21.12
2016-09-26T11:43:32.139Z,21.12
2016-09-26T11:44:32.384Z,21.14
2016-09-26T11:45:31.967Z,21.07
2016-09-26T11:46:32.914Z,21.02
2016-09-26T11:47:30.801Z,21.15
2016-09-26T11:48:31.942Z,21.25
2016-09-26T11:49:31.410Z,21.09
2016-09-26T11:50:31.957Z,21.03
2016-09-26T11:51:31.001Z,21.02
2016-09-26T11:52:31.315Z,20.81
2016-09-26T11:53:31.962Z,20.96
2016-09-26T11:54:31.093Z,20.97
2016-09-26T11:55:32.342Z,21
2016-09-26T11:56:32.658Z,20.95
2016-09-26T11:57:32.106Z,20.77
2016-09-26T11:58:32.217Z,20.52
2016-09-26T11:59:32.063Z,20.55
2016-09-26T12:00:31.838Z,20.51
2016-09-26T12:01:32.241Z,20.44
2016-09-26T12:02:32.491Z,20.25
2016-09-26T12:03:32.376Z,20.37
2016-09-26T12:04:31.588Z,20.31
2016-09-26T12:05:32.008Z,20.19
2016-09-26T12:06:33.004Z,20.14
2016-09-26T12:07:32.573Z,19.85
2016-09-26T12:08:31.812Z,19.85
2016-09-26T12:09:32.400Z,19.84
2016-09-26T12:10:32.660Z,19.76
2016-09-26T12:11:32.488Z,19.95
2016-09-26T12:12:32.265Z,20.09
2016-09-26T12:13:32.077Z,20.14
2016-09-26T12:14:32.757Z,20.19
2016-09-26T12:15:32.290Z,20.26
2016-09-26T12:16:32.944Z,20.26
2016-09-26T12:17:32.056Z,20.43
2016-09-26T12:18:32.444Z,20.47
2016-09-26T12:19:32.260Z,20.43
2016-09-26T12:20:32.006Z,20.55
2016-09-26T12:21:32.395Z,20.56
2016-09-26T12:22:32.368Z,20.63
2016-09-26T12:23:33.188Z,20.74
2016-09-26T12:24:32.795Z,20.82
2016-09-26T12:25:32.307Z,20.99
2016-09-26T12:26:32.254Z,21.15
2016-09-26T12:27:32.491Z,21.14
2016-09-26T12:28:32.788Z,21.22
2016-09-26T12:29:32.128Z,21.22
2016-09-26T12:30:33.388Z,21.35
2016-09-26T12:31:32.238Z,21.3
2016-09-26T12:32:32.674Z,21.33
2016-09-26T12:33:31.972Z,21.45
2016-09-26T12:34:33.529Z,21.54
2016-09-26T12:35:33.003Z,21.43
2016-09-26T12:36:32.923Z,21.51
2016-09-26T12:37:33.050Z,21.55
2016-09-26T12:38:32.453Z,21.39
2016-09-26T12:39:32.161Z,21.39
2016-09-26T12:40:34.760Z,21.3
2016-09-26T12:41:33.598Z,21.46
2016-09-26T12:42:32.825Z,21.52
2016-09-26T12:43:32.606Z,21.51
2016-09-26T12:44:32.720Z,21.4
2016-09-26T12:45:32.963Z,21.55
2016-09-26T12:46:32.934Z,21.62
2016-09-26T12:47:33.597Z,21.89
2016-09-26T12:48:33.120Z,21.99
2016-09-26T12:49:32.891Z,21.91
2016-09-26T12:50:32.581Z,21.99
2016-09-26T12:51:33.621Z,22.11
2016-09-26T12:52:34.522Z,22.35
2016-09-26T12:53:33.418Z,22.29
2016-09-26T12:54:33.403Z,22.38
2016-09-26T12:55:33.055Z,22.3
2016-09-26T12:56:33.243Z,22.39